Time;durP1;ratioP1;P1;durP2;ratioP2;P2;SDS_P1;SDS_P2;PMS_P1;PMS_P2;Temp;Humidity;BMP_temperature;BMP_pressure;BME280_temperature;BME280_humidity;BME280_pressure;Samples;Min_cycle;Max_cycle;Signal;HPM_P1;HPM_P2
2024/04/05 00:00:32;;;;;;;4.75;3.08;;;12.00;99.90;;;;;;4985081;28;20023;-94
2024/04/05 00:03:02;;;;;;;3.33;2.45;;;12.00;99.90;;;;;;5003043;28;20022;-94
2024/04/05 00:05:29;;;;;;;5.63;2.22;;;12.00;99.90;;;;;;4993236;28;20046;-93
2024/04/05 00:07:59;;;;;;;4.43;2.42;;;12.00;99.90;;;;;;4990420;28;20038;-93
2024/04/05 00:10:33;;;;;;;3.47;2.60;;;12.00;99.90;;;;;;4986457;28;20046;-93
2024/04/05 00:13:00;;;;;;;7.80;2.75;;;12.00;99.90;;;;;;5002375;28;20026;-93
2024/04/05 00:15:31;;;;;;;5.43;3.25;;;12.00;99.90;;;;;;4993575;28;20022;-93
2024/04/05 00:17:58;;;;;;;4.80;2.58;;;12.00;99.90;;;;;;4990915;28;20022;-93
2024/04/05 00:20:25;;;;;;;7.15;3.42;;;12.00;99.90;;;;;;5005718;28;20026;-93
2024/04/05 00:22:51;;;;;;;7.47;3.67;;;12.00;99.90;;;;;;5002374;28;20022;-92
2024/04/05 00:25:19;;;;;;;7.32;3.38;;;12.10;99.90;;;;;;5002644;28;20029;-93
2024/04/05 00:27:54;;;;;;;5.88;2.97;;;12.20;99.90;;;;;;5003861;28;20030;-94
2024/04/05 00:30:21;;;;;;;3.20;2.30;;;12.30;99.90;;;;;;5002302;28;20029;-93
2024/04/05 00:32:48;;;;;;;6.22;2.63;;;12.30;99.90;;;;;;5000475;28;20026;-93
2024/04/05 00:35:14;;;;;;;5.03;2.30;;;12.30;99.90;;;;;;5002311;28;20022;-94
2024/04/05 00:37:43;;;;;;;5.25;2.80;;;12.40;99.90;;;;;;5000951;28;20018;-94
2024/04/05 00:40:10;;;;;;;4.90;1.88;;;12.40;99.90;;;;;;4968790;28;20031;-93
2024/04/05 00:42:37;;;;;;;2.83;1.98;;;12.40;99.90;;;;;;4983355;28;20441;-93
2024/04/05 00:45:13;;;;;;;2.75;1.65;;;12.30;99.90;;;;;;4984672;28;20027;-93
2024/04/05 00:47:38;;;;;;;7.00;2.80;;;12.30;99.90;;;;;;4999733;28;20034;-93
2024/04/05 00:50:06;;;;;;;3.45;2.45;;;12.20;99.90;;;;;;4999955;28;20495;-92
2024/04/05 00:52:32;;;;;;;5.38;3.17;;;12.10;99.90;;;;;;4997075;28;20042;-91
2024/04/05 00:54:59;;;;;;;2.55;2.08;;;12.10;99.90;;;;;;5008997;28;20026;-93
2024/04/05 00:57:25;;;;;;;6.30;2.20;;;12.00;99.90;;;;;;5019780;28;20116;-91
2024/04/05 00:59:51;;;;;;;3.30;2.42;;;12.00;99.90;;;;;;5017739;28;20033;-92
2024/04/05 01:02:16;;;;;;;4.40;2.50;;;12.00;99.90;;;;;;5025463;28;20045;-92
2024/04/05 01:04:43;;;;;;;4.57;2.70;;;12.00;99.90;;;;;;5018470;28;20539;-92
2024/04/05 01:07:10;;;;;;;5.20;2.58;;;12.00;99.90;;;;;;5017394;28;20033;-92
2024/04/05 01:09:36;;;;;;;4.15;2.17;;;11.90;99.90;;;;;;5019897;28;20025;-93
2024/04/05 01:12:03;;;;;;;4.78;2.22;;;11.90;99.90;;;;;;5021705;28;20411;-92
2024/04/05 01:14:29;;;;;;;4.25;2.40;;;11.90;99.90;;;;;;5017159;28;20030;-93
2024/04/05 01:16:55;;;;;;;5.45;2.80;;;11.90;99.90;;;;;;5017142;28;20068;-91
2024/04/05 01:19:23;;;;;;;3.90;1.98;;;11.80;99.90;;;;;;5013658;28;20073;-92
2024/04/05 01:21:51;;;;;;;2.70;2.45;;;11.80;99.90;;;;;;5031824;28;20049;-92
2024/04/05 01:24:17;;;;;;;3.83;2.15;;;11.80;99.90;;;;;;5014531;28;20011;-91
2024/04/05 01:26:43;;;;;;;5.55;2.58;;;11.70;99.90;;;;;;5017068;28;20037;-92
2024/04/05 01:29:08;;;;;;;4.25;2.35;;;11.70;99.90;;;;;;5017076;28;20033;-92
2024/04/05 01:31:34;;;;;;;3.05;1.65;;;11.70;99.90;;;;;;5017435;28;20032;-94
2024/04/05 01:34:00;;;;;;;3.58;2.17;;;11.70;99.90;;;;;;5024895;28;20030;-93
2024/04/05 01:36:25;;;;;;;6.28;2.67;;;11.70;99.90;;;;;;5016837;28;20518;-92
2024/04/05 01:38:51;;;;;;;4.43;2.42;;;11.70;99.90;;;;;;5031779;28;20076;-93
2024/04/05 01:41:19;;;;;;;5.57;2.33;;;11.70;99.90;;;;;;5018682;28;20510;-93
2024/04/05 01:43:45;;;;;;;3.60;2.55;;;11.60;99.90;;;;;;5018792;28;20079;-93
2024/04/05 01:46:11;;;;;;;3.72;2.58;;;11.70;99.90;;;;;;5017166;28;20129;-92
2024/04/05 01:48:36;;;;;;;5.15;2.67;;;11.60;99.90;;;;;;5018436;28;20045;-93
2024/04/05 01:51:02;;;;;;;5.47;2.70;;;11.60;99.90;;;;;;5017422;28;20061;-93
2024/04/05 01:53:28;;;;;;;4.60;2.72;;;11.60;99.90;;;;;;5017339;28;20183;-92
2024/04/05 01:55:53;;;;;;;5.53;2.90;;;11.60;99.90;;;;;;5017141;28;20488;-92
2024/04/05 01:58:19;;;;;;;5.95;3.13;;;11.60;99.90;;;;;;5017303;28;20037;-93
2024/04/05 02:00:45;;;;;;;3.65;2.63;;;11.60;99.90;;;;;;5017523;28;20076;-94
2024/04/05 02:03:10;;;;;;;3.97;2.40;;;11.60;99.90;;;;;;5017672;28;20384;-92
2024/04/05 02:05:36;;;;;;;7.18;2.50;;;11.60;99.90;;;;;;5016589;28;20392;-93
2024/04/05 02:08:02;;;;;;;4.40;3.13;;;11.60;99.90;;;;;;5026424;28;20032;-92
2024/04/05 02:10:29;;;;;;;5.35;2.58;;;11.50;99.90;;;;;;5027771;28;20029;-93
2024/04/05 02:12:55;;;;;;;6.35;2.53;;;11.50;99.90;;;;;;5018523;28;20506;-90
2024/04/05 02:15:21;;;;;;;9.55;2.53;;;11.30;99.90;;;;;;5022038;28;20053;-92
2024/04/05 02:17:46;;;;;;;4.40;2.30;;;11.40;99.90;;;;;;5018712;28;20026;-91
2024/04/05 02:20:12;;;;;;;3.85;2.78;;;11.40;99.90;;;;;;5015102;28;20562;-93
2024/04/05 02:22:38;;;;;;;4.60;2.58;;;11.40;99.90;;;;;;5026622;28;20026;-92
2024/04/05 02:25:05;;;;;;;3.85;2.40;;;11.30;99.90;;;;;;5019073;28;20022;-93
2024/04/05 02:27:31;;;;;;;4.65;2.30;;;11.30;99.90;;;;;;5017676;28;20026;-92
2024/04/05 02:30:00;;;;;;;4.00;2.63;;;11.30;99.90;;;;;;5029686;28;20025;-93
2024/04/05 02:32:29;;;;;;;5.10;2.28;;;11.20;99.90;;;;;;5028192;28;20049;-95
2024/04/05 02:34:55;;;;;;;5.78;3.75;;;11.10;99.90;;;;;;5019741;28;20022;-94
2024/04/05 02:37:20;;;;;;;3.72;2.55;;;11.10;99.90;;;;;;5017840;28;20026;-93
2024/04/05 02:39:46;;;;;;;3.38;1.85;;;11.10;99.90;;;;;;5018517;28;20029;-93
2024/04/05 02:42:11;;;;;;;3.30;1.67;;;11.10;99.90;;;;;;5026551;28;20029;-90
2024/04/05 02:44:37;;;;;;;3.80;2.40;;;11.10;99.90;;;;;;5018583;28;20635;-91
2024/04/05 02:47:03;;;;;;;4.85;3.25;;;11.10;99.90;;;;;;5023078;28;20043;-91
2024/04/05 02:49:29;;;;;;;3.53;2.03;;;11.10;99.90;;;;;;5026952;28;20053;-94
2024/04/05 02:51:55;;;;;;;4.13;2.17;;;11.10;99.90;;;;;;5023505;28;20527;-93
2024/04/05 02:54:20;;;;;;;5.07;2.05;;;11.10;99.90;;;;;;5016638;28;20022;-94
2024/04/05 02:56:46;;;;;;;5.03;1.98;;;11.10;99.90;;;;;;5027684;28;20057;-92
2024/04/05 02:59:12;;;;;;;3.88;2.13;;;11.10;99.90;;;;;;5020938;28;20022;-93
2024/04/05 03:01:47;;;;;;;4.55;3.67;;;11.00;99.90;;;;;;5019703;28;20022;-92
2024/04/05 03:04:16;;;;;;;5.72;2.28;;;11.00;99.90;;;;;;5024215;28;20484;-91
2024/04/05 03:06:41;;;;;;;5.32;3.13;;;11.10;99.90;;;;;;5033502;28;20026;-93
2024/04/05 03:09:07;;;;;;;4.78;2.35;;;11.10;99.90;;;;;;5044514;28;20075;-90
2024/04/05 03:11:37;;;;;;;2.45;2.25;;;11.00;99.90;;;;;;5023051;28;20527;-92
2024/04/05 03:14:03;;;;;;;5.70;3.88;;;11.00;99.90;;;;;;5024054;28;20030;-92
2024/04/05 03:16:28;;;;;;;4.28;3.80;;;11.00;99.90;;;;;;5025434;28;20036;-91
2024/04/05 03:18:57;;;;;;;4.32;2.63;;;11.00;99.90;;;;;;5030614;28;20026;-93
2024/04/05 03:21:23;;;;;;;6.10;3.08;;;10.90;99.90;;;;;;5031972;28;20030;-92
2024/04/05 03:23:48;;;;;;;4.15;2.78;;;10.90;99.90;;;;;;5021799;28;20029;-92
2024/04/05 03:26:14;;;;;;;6.53;3.55;;;10.90;99.90;;;;;;5024373;28;20026;-92
2024/04/05 03:28:40;;;;;;;5.88;2.72;;;10.80;99.90;;;;;;5020507;28;20085;-93
2024/04/05 03:31:05;;;;;;;8.27;2.25;;;10.80;99.90;;;;;;5018312;28;20033;-92
2024/04/05 03:33:32;;;;;;;4.25;2.72;;;10.80;99.90;;;;;;5020145;28;20476;-92
2024/04/05 03:36:05;;;;;;;4.35;2.67;;;10.70;99.90;;;;;;5021418;28;20365;-91
2024/04/05 03:38:33;;;;;;;6.78;3.35;;;10.70;99.90;;;;;;5020852;28;20031;-91
2024/04/05 03:41:01;;;;;;;6.05;3.13;;;10.70;99.90;;;;;;5028585;28;20086;-93
2024/04/05 03:43:30;;;;;;;5.68;3.20;;;10.70;99.90;;;;;;5019687;28;20026;-93
2024/04/05 03:45:56;;;;;;;7.38;4.03;;;10.80;99.90;;;;;;5020509;28;20034;-92
2024/04/05 03:48:21;;;;;;;6.00;3.58;;;10.80;99.90;;;;;;5021452;28;20029;-92
2024/04/05 03:50:47;;;;;;;6.03;4.03;;;10.80;99.90;;;;;;5026057;28;20029;-93
2024/04/05 03:53:13;;;;;;;5.15;2.72;;;10.80;99.90;;;;;;5019923;28;20026;-93
2024/04/05 03:55:38;;;;;;;5.82;3.47;;;10.80;99.90;;;;;;5020084;28;20052;-93
2024/04/05 03:58:04;;;;;;;6.80;3.88;;;10.80;99.90;;;;;;5019246;28;20061;-92
2024/04/05 04:00:40;;;;;;;5.00;3.72;;;10.80;99.90;;;;;;5019777;28;20046;-91
2024/04/05 04:03:07;;;;;;;7.15;3.10;;;10.80;99.90;;;;;;5021203;28;20022;-92
2024/04/05 04:05:33;;;;;;;6.03;3.55;;;10.80;99.90;;;;;;5024633;28;20060;-94
2024/04/05 04:07:58;;;;;;;4.10;2.38;;;10.80;99.90;;;;;;5027561;28;20520;-93
2024/04/05 04:10:26;;;;;;;4.30;2.83;;;10.80;99.90;;;;;;5023478;28;20036;-92
2024/04/05 04:12:52;;;;;;;5.18;2.65;;;10.80;99.90;;;;;;5019535;28;20072;-92
2024/04/05 04:15:19;;;;;;;4.80;3.25;;;10.80;99.90;;;;;;5016815;28;20026;-92
2024/04/05 04:17:45;;;;;;;4.82;3.30;;;10.80;99.90;;;;;;5023005;28;20017;-93
2024/04/05 04:20:10;;;;;;;6.15;3.20;;;10.80;99.90;;;;;;5017125;28;20550;-91
2024/04/05 04:22:38;;;;;;;5.53;3.80;;;10.80;99.90;;;;;;5018236;28;20030;-93
2024/04/05 04:25:03;;;;;;;7.57;3.67;;;10.80;99.90;;;;;;5019009;28;20378;-93
2024/04/05 04:27:32;;;;;;;7.32;4.15;;;10.80;99.90;;;;;;5026877;28;20049;-93
2024/04/05 04:29:58;;;;;;;6.85;4.28;;;10.70;99.90;;;;;;5017921;28;20051;-94
2024/04/05 04:32:24;;;;;;;6.70;4.00;;;10.70;99.90;;;;;;5028127;28;20102;-93
2024/04/05 04:34:50;;;;;;;7.50;3.72;;;10.70;99.90;;;;;;5018206;28;20026;-94
2024/04/05 04:37:19;;;;;;;9.93;4.47;;;10.60;99.90;;;;;;5017940;28;20025;-92
2024/04/05 04:39:46;;;;;;;6.90;4.40;;;10.60;99.90;;;;;;5012098;28;20022;-92
2024/04/05 04:42:12;;;;;;;8.55;4.43;;;10.50;99.90;;;;;;5017579;28;20033;-92
2024/04/05 04:44:38;;;;;;;5.55;3.67;;;10.50;99.90;;;;;;5002294;28;20040;-91
2024/04/05 04:47:04;;;;;;;8.07;3.70;;;10.40;99.90;;;;;;5016269;28;20554;-92
2024/04/05 04:49:30;;;;;;;6.50;3.67;;;10.40;99.90;;;;;;5018398;28;20034;-92
2024/04/05 04:51:56;;;;;;;7.53;4.03;;;10.40;99.90;;;;;;5019222;28;20026;-92
2024/04/05 04:54:21;;;;;;;6.97;3.85;;;10.40;99.90;;;;;;5019989;28;20057;-92
2024/04/05 04:56:47;;;;;;;6.15;4.03;;;10.30;99.90;;;;;;5019630;28;20049;-93
2024/04/05 04:59:13;;;;;;;9.30;6.18;;;10.30;99.90;;;;;;5017865;28;20046;-93
2024/04/05 05:01:40;;;;;;;7.40;4.15;;;10.20;99.90;;;;;;5009153;28;20239;-93
2024/04/05 05:04:06;;;;;;;7.50;3.67;;;10.20;99.90;;;;;;5016669;28;20033;-92
2024/04/05 05:06:32;;;;;;;6.40;3.60;;;10.20;99.90;;;;;;5022216;28;20026;-93
2024/04/05 05:08:58;;;;;;;6.97;3.55;;;10.20;99.90;;;;;;5019720;28;20029;-93
2024/04/05 05:11:50;;;;;;;8.45;3.47;;;10.10;99.90;;;;;;5042177;28;20517;-92
2024/04/05 05:14:21;;;;;;;6.95;3.38;;;10.20;99.90;;;;;;5031996;28;20036;-92
2024/04/05 05:16:50;;;;;;;9.68;3.75;;;10.20;99.90;;;;;;5023938;28;20026;-93
2024/04/05 05:19:15;;;;;;;7.32;4.00;;;10.20;99.90;;;;;;5015128;28;20068;-92
2024/04/05 05:21:41;;;;;;;9.18;4.07;;;10.10;99.90;;;;;;5017243;28;20503;-92
2024/04/05 05:24:07;;;;;;;7.18;3.42;;;10.20;99.90;;;;;;5033592;28;20057;-94
2024/04/05 05:26:32;;;;;;;8.00;4.40;;;10.20;99.90;;;;;;5019129;28;20026;-93
2024/04/05 05:28:58;;;;;;;7.90;5.18;;;10.20;99.90;;;;;;5018044;28;20547;-91
2024/04/05 05:31:24;;;;;;;5.53;4.55;;;10.20;99.90;;;;;;5020625;28;20528;-94
2024/04/05 05:33:50;;;;;;;8.35;4.57;;;10.10;99.90;;;;;;5020744;28;20483;-94
2024/04/05 05:36:17;;;;;;;12.18;5.43;;;10.20;99.90;;;;;;5017923;28;20061;-93
2024/04/05 05:38:42;;;;;;;8.73;4.63;;;10.10;99.90;;;;;;5014314;28;20341;-93
2024/04/05 05:41:08;;;;;;;6.25;4.35;;;10.10;99.90;;;;;;5013338;28;20064;-93
2024/04/05 05:43:34;;;;;;;9.93;4.80;;;10.10;99.90;;;;;;5018302;28;20038;-93
2024/04/05 05:46:00;;;;;;;11.27;5.00;;;10.10;99.90;;;;;;5023813;28;20025;-93
2024/04/05 05:48:28;;;;;;;6.07;3.67;;;10.10;99.90;;;;;;5026869;28;20033;-93
2024/04/05 05:50:57;;;;;;;7.07;4.35;;;10.10;99.90;;;;;;5015603;28;20033;-93
2024/04/05 05:53:22;;;;;;;5.40;4.10;;;10.20;99.90;;;;;;5015645;28;20026;-92
2024/04/05 05:55:52;;;;;;;7.88;3.85;;;10.20;99.90;;;;;;5015559;28;20032;-94
2024/04/05 05:58:18;;;;;;;6.55;4.82;;;10.20;99.90;;;;;;5016817;28;20022;-93
2024/04/05 06:00:44;;;;;;;5.82;4.80;;;10.20;99.90;;;;;;5015509;28;20080;-93
2024/04/05 06:03:09;;;;;;;10.18;5.57;;;10.20;99.90;;;;;;5015388;28;20026;-93
2024/04/05 06:05:36;;;;;;;6.60;4.88;;;10.20;99.90;;;;;;5014108;28;20451;-92
2024/04/05 06:08:02;;;;;;;6.55;4.90;;;10.30;99.90;;;;;;5013375;28;20083;-92
2024/04/05 06:10:41;;;;;;;7.97;5.15;;;10.30;99.90;;;;;;4988356;28;20560;-91
2024/04/05 06:13:06;;;;;;;8.48;6.03;;;10.30;99.90;;;;;;5002589;28;20119;-92
2024/04/05 06:15:32;;;;;;;12.73;5.93;;;10.50;99.90;;;;;;4995720;28;20043;-93
2024/04/05 06:17:57;;;;;;;7.28;4.15;;;10.50;99.90;;;;;;5007776;28;20072;-93
2024/04/05 06:20:23;;;;;;;7.13;5.30;;;10.70;99.90;;;;;;5011342;28;20017;-91
2024/04/05 06:22:49;;;;;;;9.07;5.00;;;10.80;99.90;;;;;;5013741;28;20018;-92
2024/04/05 06:25:14;;;;;;;8.27;6.05;;;10.90;99.90;;;;;;5014526;28;20021;-92
2024/04/05 06:27:41;;;;;;;7.82;5.15;;;11.00;99.90;;;;;;5012663;28;20041;-91
2024/04/05 06:30:10;;;;;;;9.68;4.80;;;11.10;99.90;;;;;;5009477;28;20496;-91
2024/04/05 06:32:35;;;;;;;5.75;3.83;;;11.20;99.90;;;;;;5003114;28;20662;-92
2024/04/05 06:35:01;;;;;;;6.47;4.30;;;11.30;99.90;;;;;;5008552;28;20021;-92
2024/04/05 06:37:28;;;;;;;7.90;4.85;;;11.40;99.90;;;;;;5011988;28;20057;-91
2024/04/05 06:39:54;;;;;;;7.70;4.93;;;11.60;99.90;;;;;;5016024;28;20014;-91
2024/04/05 06:42:21;;;;;;;6.85;4.65;;;11.70;99.90;;;;;;5016404;28;20026;-91
2024/04/05 06:44:50;;;;;;;8.30;6.40;;;11.80;99.90;;;;;;5017140;28;20072;-90
2024/04/05 06:47:15;;;;;;;7.97;5.35;;;11.90;99.90;;;;;;5016688;28;20025;-92
2024/04/05 06:49:41;;;;;;;9.75;4.95;;;12.00;99.90;;;;;;5021238;28;20059;-92
2024/04/05 06:52:08;;;;;;;6.18;5.35;;;12.10;99.90;;;;;;5022592;28;20637;-90
2024/04/05 06:54:46;;;;;;;4.70;3.78;;;12.20;99.90;;;;;;5017884;28;20101;-92
2024/04/05 06:57:12;;;;;;;9.30;4.70;;;12.30;99.90;;;;;;5017023;28;20427;-91
2024/04/05 06:59:38;;;;;;;6.72;4.10;;;12.40;99.90;;;;;;5032479;28;20072;-92
2024/04/05 07:02:04;;;;;;;6.78;3.88;;;12.50;99.90;;;;;;5004573;28;20043;-88
2024/04/05 07:04:33;;;;;;;12.27;6.93;;;12.60;99.90;;;;;;5015911;28;20484;-90
2024/04/05 07:06:59;;;;;;;8.63;3.92;;;12.70;99.90;;;;;;5021804;28;20502;-93
2024/04/05 07:09:28;;;;;;;7.72;5.20;;;12.80;99.90;;;;;;5020595;28;20026;-91
2024/04/05 07:11:53;;;;;;;7.47;3.10;;;13.00;99.90;;;;;;5022810;28;20026;-91
2024/04/05 07:14:19;;;;;;;4.82;3.95;;;13.10;99.90;;;;;;5024722;28;20566;-92
2024/04/05 07:16:46;;;;;;;10.68;2.47;;;13.20;99.90;;;;;;5033945;28;20495;-93
2024/04/05 07:19:12;;;;;;;5.55;2.13;;;13.30;99.90;;;;;;5027903;28;20123;-92
2024/04/05 07:21:38;;;;;;;6.10;2.70;;;13.40;99.90;;;;;;5019111;28;20112;-94
2024/04/05 07:24:05;;;;;;;3.95;2.63;;;13.50;99.90;;;;;;5024708;28;20502;-91
2024/04/05 07:26:31;;;;;;;7.65;4.93;;;13.60;99.90;;;;;;5009434;28;20036;-92
2024/04/05 07:28:57;;;;;;;13.55;11.07;;;13.70;99.90;;;;;;5012437;28;20120;-93
2024/04/05 07:31:22;;;;;;;10.55;7.10;;;13.80;99.90;;;;;;5018312;28;20592;-92
2024/04/05 07:33:48;;;;;;;7.05;3.88;;;13.90;99.90;;;;;;5019115;28;20673;-92
2024/04/05 07:36:16;;;;;;;4.65;2.30;;;14.00;99.90;;;;;;5026297;28;20101;-93
2024/04/05 07:38:42;;;;;;;3.90;2.42;;;14.00;99.90;;;;;;5018565;28;20504;-92
2024/04/05 07:41:08;;;;;;;6.05;2.30;;;14.20;99.90;;;;;;5017694;28;20076;-93
2024/04/05 07:43:33;;;;;;;4.85;2.45;;;14.20;99.90;;;;;;5024296;28;20439;-90
2024/04/05 07:45:59;;;;;;;5.25;2.42;;;14.30;99.90;;;;;;5024466;28;20084;-91
2024/04/05 07:48:25;;;;;;;4.65;2.50;;;14.40;99.90;;;;;;5024444;28;20221;-94
2024/04/05 07:50:51;;;;;;;5.28;2.33;;;14.60;99.90;;;;;;5024226;28;20104;-92
2024/04/05 07:53:17;;;;;;;9.15;2.90;;;14.70;99.90;;;;;;5019199;28;20022;-92
2024/04/05 07:55:43;;;;;;;5.43;2.35;;;14.80;99.90;;;;;;5025208;28;20026;-91
2024/04/05 07:58:09;;;;;;;5.40;2.22;;;14.90;99.90;;;;;;5025283;28;20443;-92
2024/04/05 08:00:36;;;;;;;4.53;2.20;;;15.00;99.90;;;;;;5018586;28;20030;-92
2024/04/05 08:03:03;;;;;;;5.30;2.67;;;15.00;99.90;;;;;;5024729;28;20042;-92
2024/04/05 08:05:28;;;;;;;7.55;2.85;;;15.00;99.90;;;;;;5019023;28;20022;-92
2024/04/05 08:07:56;;;;;;;5.47;2.38;;;15.00;99.90;;;;;;5025947;28;20018;-92
2024/04/05 08:10:24;;;;;;;5.78;2.47;;;15.10;99.90;;;;;;5025449;28;20089;-92
2024/04/05 08:12:51;;;;;;;5.22;2.22;;;15.20;98.80;;;;;;5025235;28;20384;-92
2024/04/05 08:15:16;;;;;;;3.55;1.83;;;15.30;98.20;;;;;;5017821;28;20299;-91
2024/04/05 08:17:42;;;;;;;6.25;2.20;;;15.40;99.90;;;;;;5009517;28;20573;-92
2024/04/05 08:20:07;;;;;;;5.53;1.90;;;15.50;98.80;;;;;;5016491;28;20109;-94
2024/04/05 08:22:34;;;;;;;40.47;12.85;;;15.70;99.60;;;;;;5014232;28;20042;-95
2024/04/05 08:25:00;;;;;;;35.88;10.68;;;15.80;97.80;;;;;;5014928;28;20025;-96
2024/04/05 08:27:31;;;;;;;14.10;4.28;;;16.10;96.00;;;;;;5023409;28;20033;-92
2024/04/05 08:29:57;;;;;;;17.45;5.78;;;16.20;94.70;;;;;;5029618;28;20025;-94
2024/04/05 08:32:23;;;;;;;11.85;3.25;;;16.30;94.20;;;;;;5022241;28;20033;-91
2024/04/05 08:34:49;;;;;;;5.57;1.10;;;16.40;91.10;;;;;;5015199;28;20022;-91
2024/04/05 08:37:14;;;;;;;4.78;1.33;;;16.50;91.80;;;;;;5020513;28;20068;-93
2024/04/05 08:39:41;;;;;;;5.68;1.33;;;16.70;85.90;;;;;;5014338;28;20133;-94
2024/04/05 08:42:14;;;;;;;5.28;4.72;;;16.90;85.30;;;;;;5018734;28;20116;-92
2024/04/05 08:44:56;;;;;;;2.70;1.30;;;17.10;85.00;;;;;;5009689;28;20097;-92
2024/04/05 08:47:24;;;;;;;3.75;1.95;;;17.20;81.80;;;;;;5027404;28;20037;-93
2024/04/05 08:49:51;;;;;;;3.97;1.85;;;17.40;77.70;;;;;;5040908;28;20491;-93
2024/04/05 08:52:19;;;;;;;3.35;1.38;;;17.50;79.50;;;;;;5028951;28;20114;-92
2024/04/05 08:54:44;;;;;;;4.75;1.25;;;17.70;78.90;;;;;;5018919;28;20029;-93
2024/04/05 08:57:11;;;;;;;5.60;1.63;;;17.80;77.70;;;;;;5026610;28;20037;-92
2024/04/05 08:59:37;;;;;;;2.40;1.13;;;18.00;75.60;;;;;;5025981;28;20431;-94
2024/04/05 09:02:03;;;;;;;5.88;1.60;;;18.10;71.00;;;;;;5032560;28;20028;-91
2024/04/05 09:04:30;;;;;;;3.05;1.92;;;18.20;70.90;;;;;;5018359;28;20403;-93
2024/04/05 09:06:56;;;;;;;7.78;1.83;;;18.40;71.10;;;;;;5029761;28;20483;-91
2024/04/05 09:09:25;;;;;;;4.95;1.30;;;18.60;70.10;;;;;;5024539;28;20048;-94
2024/04/05 09:11:59;;;;;;;6.20;1.88;;;18.70;68.90;;;;;;5019571;28;20045;-95
2024/04/05 09:14:25;;;;;;;2.38;1.23;;;18.80;70.00;;;;;;5018012;28;20117;-94
2024/04/05 09:16:51;;;;;;;3.78;1.75;;;18.90;67.20;;;;;;5022865;28;20022;-94
2024/04/05 09:19:18;;;;;;;3.67;1.00;;;18.90;64.90;;;;;;5024111;28;20030;-94
2024/04/05 09:21:44;;;;;;;4.32;1.42;;;19.10;68.30;;;;;;5019473;28;20049;-94
2024/04/05 09:24:11;;;;;;;2.80;0.95;;;19.00;70.30;;;;;;5020602;28;20026;-94
2024/04/05 09:26:37;;;;;;;3.15;1.20;;;18.90;69.90;;;;;;5018054;28;20022;-93
2024/04/05 09:29:04;;;;;;;4.35;1.25;;;19.10;70.60;;;;;;5020456;28;20037;-94
2024/04/05 09:31:34;;;;;;;5.72;2.67;;;19.20;66.10;;;;;;5021159;28;20179;-93
2024/04/05 09:34:18;;;;;;;4.80;2.17;;;19.40;65.00;;;;;;5033176;28;20502;-94
2024/04/05 09:36:46;;;;;;;2.78;1.48;;;19.70;64.90;;;;;;5021859;28;20053;-94
2024/04/05 09:39:19;;;;;;;3.70;1.02;;;19.80;62.40;;;;;;5020462;28;20028;-93
2024/04/05 09:41:48;;;;;;;4.72;1.33;;;19.90;65.80;;;;;;5029370;28;20050;-94
2024/04/05 09:44:24;;;;;;;7.25;2.03;;;19.90;66.00;;;;;;5025273;28;20022;-94
2024/04/05 09:47:05;;;;;;;5.47;1.35;;;20.20;65.30;;;;;;5030373;28;20041;-94
2024/04/05 09:49:31;;;;;;;3.65;1.38;;;20.40;63.00;;;;;;5040733;28;20063;-94
2024/04/05 09:52:02;;;;;;;8.57;1.23;;;20.30;67.40;;;;;;5028785;28;20030;-95
2024/04/05 09:54:55;;;;;;;2.38;1.23;;;20.40;65.90;;;;;;5016466;28;20029;-93
2024/04/05 09:57:21;;;;;;;4.43;1.10;;;20.30;66.00;;;;;;5018802;28;20033;-94
2024/04/05 09:59:49;;;;;;;6.50;1.90;;;20.70;65.40;;;;;;5018858;28;20554;-95
2024/04/05 10:02:20;;;;;;;2.97;1.48;;;20.70;62.90;;;;;;5008053;28;20054;-93
2024/04/05 10:04:46;;;;;;;6.82;1.40;;;20.50;61.40;;;;;;5024474;28;20022;-94
2024/04/05 10:07:17;;;;;;;3.90;1.58;;;21.00;62.90;;;;;;5031336;28;20060;-94
2024/04/05 10:09:46;;;;;;;2.65;0.98;;;21.00;61.90;;;;;;5020135;28;20050;-93
2024/04/05 10:12:20;;;;;;;2.17;1.20;;;21.30;60.10;;;;;;5026090;28;20112;-94
2024/04/05 10:14:55;;;;;;;4.45;1.35;;;21.10;60.00;;;;;;5026419;28;20046;-94
2024/04/05 10:17:29;;;;;;;3.78;0.73;;;21.40;59.90;;;;;;5014357;28;20077;-93
2024/04/05 10:20:11;;;;;;;5.30;2.35;;;21.60;52.20;;;;;;5040005;28;20021;-93
2024/04/05 10:22:37;;;;;;;3.38;1.10;;;21.60;52.80;;;;;;5026284;28;20026;-94
2024/04/05 10:25:03;;;;;;;4.15;1.08;;;21.90;54.40;;;;;;5031640;28;20029;-93
2024/04/05 10:27:29;;;;;;;3.92;1.90;;;22.00;51.20;;;;;;5025628;28;20080;-94
2024/04/05 10:30:14;;;;;;;2.67;0.90;;;22.10;51.40;;;;;;5027847;28;20057;-92
2024/04/05 10:32:45;;;;;;;5.10;1.70;;;22.40;52.50;;;;;;5030902;28;20029;-93
2024/04/05 10:35:11;;;;;;;1.70;1.02;;;22.70;54.00;;;;;;5046773;28;20026;-95
2024/04/05 10:37:42;;;;;;;4.00;1.40;;;23.20;52.80;;;;;;5027078;28;20049;-93
2024/04/05 10:40:12;;;;;;;3.08;0.93;;;23.40;47.00;;;;;;5014847;28;20018;-94
2024/04/05 10:42:59;;;;;;;2.70;1.05;;;23.40;44.30;;;;;;5014307;28;20045;-94
2024/04/05 10:45:25;;;;;;;2.33;0.70;;;23.30;44.60;;;;;;5017518;28;20400;-95
2024/04/05 10:48:00;;;;;;;3.20;0.55;;;23.20;45.10;;;;;;5026202;28;20022;-94
2024/04/05 10:50:30;;;;;;;1.98;0.90;;;22.80;42.30;;;;;;5027641;28;20034;-93
2024/04/05 10:53:38;;;;;;;2.83;0.55;;;23.10;41.00;;;;;;5035618;28;20045;-91
2024/04/05 10:56:08;;;;;;;3.00;1.20;;;23.30;44.00;;;;;;5024244;28;20085;-93
2024/04/05 10:58:37;;;;;;;1.27;0.80;;;22.90;40.70;;;;;;5018034;28;20554;-93
2024/04/05 11:01:04;;;;;;;3.50;0.88;;;22.90;42.20;;;;;;5039261;28;20048;-93
2024/04/05 11:03:29;;;;;;;;;;;23.00;39.70;;;;;;5045054;28;20083;-93
2024/04/05 11:06:10;;;;;;;1.50;0.73;;;23.00;40.40;;;;;;5034315;28;19906;-93
2024/04/05 11:08:55;;;;;;;3.22;0.80;;;22.80;40.60;;;;;;5029782;28;20057;-94
2024/04/05 11:11:21;;;;;;;2.70;0.98;;;23.00;40.00;;;;;;5028386;28;20026;-88
2024/04/05 11:13:47;;;;;;;7.53;0.95;;;23.00;38.30;;;;;;5031062;28;20377;-93
2024/04/05 11:16:15;;;;;;;1.40;0.68;;;23.20;40.10;;;;;;5026420;28;20113;-93
2024/04/05 11:18:41;;;;;;;3.42;0.80;;;23.20;40.40;;;;;;5009556;28;20030;-94
2024/04/05 11:21:16;;;;;;;2.75;0.90;;;22.70;40.80;;;;;;5036810;28;20028;-94
2024/04/05 11:23:54;;;;;;;5.95;0.88;;;22.10;38.90;;;;;;5042801;28;20120;-93
2024/04/05 11:26:23;;;;;;;6.10;0.55;;;22.00;41.60;;;;;;5046523;28;20018;-93
2024/04/05 11:28:51;;;;;;;3.08;0.63;;;22.00;41.40;;;;;;5047334;28;20033;-94
2024/04/05 11:31:17;;;;;;;2.53;0.70;;;22.00;41.40;;;;;;5031023;28;20010;-92
2024/04/05 11:33:43;;;;;;;3.25;1.30;;;21.90;41.30;;;;;;5032830;28;20037;-93
2024/04/05 11:36:10;;;;;;;2.03;0.98;;;22.00;42.80;;;;;;5033133;28;20052;-92
2024/04/05 11:38:38;;;;;;;4.18;1.33;;;22.00;41.30;;;;;;5028019;28;20029;-94
2024/04/05 11:41:04;;;;;;;1.40;0.65;;;22.00;42.50;;;;;;5036888;28;20018;-92
2024/04/05 11:43:33;;;;;;;2.28;0.80;;;22.00;43.30;;;;;;5025983;28;20033;-92
2024/04/05 11:45:58;;;;;;;3.40;0.68;;;22.00;44.50;;;;;;5028248;28;20081;-94
2024/04/05 11:48:24;;;;;;;1.85;0.60;;;22.00;42.10;;;;;;5026527;28;20034;-93
2024/04/05 11:50:50;;;;;;;4.70;1.20;;;21.80;41.40;;;;;;5022946;28;20029;-94
2024/04/05 11:53:16;;;;;;;2.67;0.80;;;21.80;44.40;;;;;;5023447;28;20025;-93
2024/04/05 11:55:42;;;;;;;2.65;1.15;;;21.80;42.10;;;;;;5026188;28;20400;-93
2024/04/05 11:58:08;;;;;;;1.30;1.20;;;21.80;44.30;;;;;;5027512;28;20521;-94
2024/04/05 12:00:58;;;;;;;3.00;0.80;;;21.80;44.60;;;;;;5037036;28;20030;-93
2024/04/05 12:03:53;;;;;;;1.23;0.80;;;21.70;43.10;;;;;;5036037;28;20093;-92
2024/04/05 12:06:22;;;;;;;2.72;0.70;;;21.80;45.60;;;;;;5030873;28;20038;-94
2024/04/05 12:08:48;;;;;;;2.67;1.08;;;21.70;43.70;;;;;;5027184;28;20014;-94
2024/04/05 12:11:14;;;;;;;2.55;0.70;;;21.70;44.50;;;;;;5028703;28;20033;-93
2024/04/05 12:13:45;;;;;;;1.58;0.80;;;21.70;45.30;;;;;;5029626;28;20026;-93
2024/04/05 12:16:15;;;;;;;2.00;1.13;;;21.60;45.30;;;;;;5026103;28;20046;-93
2024/04/05 12:18:53;;;;;;;3.45;0.90;;;21.60;45.90;;;;;;5030711;28;20500;-93
2024/04/05 12:21:19;;;;;;;3.05;1.00;;;21.50;45.10;;;;;;5039832;28;20036;-93
2024/04/05 12:23:45;;;;;;;1.85;1.25;;;21.40;46.40;;;;;;5026144;28;20115;-93
2024/04/05 12:26:11;;;;;;;1.95;1.00;;;21.40;47.50;;;;;;5027411;28;20189;-92
2024/04/05 12:28:38;;;;;;;2.95;1.00;;;21.60;46.00;;;;;;5026018;28;20025;-94
2024/04/05 12:31:04;;;;;;;3.10;0.95;;;21.50;46.40;;;;;;5025654;28;20084;-93
2024/04/05 12:33:29;;;;;;;1.50;0.82;;;21.60;44.90;;;;;;5024788;28;20030;-93
2024/04/05 12:36:03;;;;;;;4.18;1.00;;;21.80;45.80;;;;;;5026263;28;20026;-93
2024/04/05 12:38:31;;;;;;;6.05;0.93;;;21.80;44.80;;;;;;5026143;28;20022;-93
2024/04/05 12:40:57;;;;;;;2.25;1.33;;;21.80;45.60;;;;;;5023645;28;20049;-93
2024/04/05 12:43:23;;;;;;;3.58;1.10;;;21.70;46.00;;;;;;5041219;28;20108;-93
2024/04/05 12:46:04;;;;;;;5.70;1.08;;;21.70;44.70;;;;;;5028680;28;20022;-91
2024/04/05 12:48:33;;;;;;;2.63;1.35;;;21.60;45.00;;;;;;5024701;28;20030;-93